Time;durP1;ratioP1;P1;durP2;ratioP2;P2;SDS_P1;SDS_P2;PMS_P1;PMS_P2;Temp;Humidity;BMP_temperature;BMP_pressure;BME280_temperature;BME280_humidity;BME280_pressure;Samples;Min_cycle;Max_cycle;Signal;HPM_P1;HPM_P2
2022/04/16 00:01:17;;;;;;;14.93;9.63;;;13.30;99.90;;;;;;5052004;28;20316;-65
2022/04/16 00:03:45;;;;;;;15.43;9.03;;;13.20;99.90;;;;;;5051918;28;20210;-66
2022/04/16 00:06:13;;;;;;;18.80;9.47;;;13.20;99.90;;;;;;5051696;28;20204;-66
2022/04/16 00:08:40;;;;;;;14.10;9.30;;;13.10;99.90;;;;;;5051682;28;20209;-67
2022/04/16 00:11:07;;;;;;;18.60;9.50;;;13.10;99.90;;;;;;5051512;28;20248;-66
2022/04/16 00:13:34;;;;;;;16.63;10.10;;;13.10;99.90;;;;;;5051451;28;20201;-66
2022/04/16 00:16:01;;;;;;;19.80;10.30;;;13.00;99.90;;;;;;5051780;28;20563;-65
2022/04/16 00:18:28;;;;;;;15.33;9.70;;;13.00;99.90;;;;;;5051610;28;20709;-67
2022/04/16 00:20:57;;;;;;;16.60;9.60;;;13.00;99.90;;;;;;5051732;28;20305;-66
2022/04/16 00:23:26;;;;;;;14.93;8.37;;;12.90;99.90;;;;;;5051558;28;20205;-67
2022/04/16 00:25:53;;;;;;;16.20;9.50;;;12.80;99.90;;;;;;5051388;28;20208;-67
2022/04/16 00:28:20;;;;;;;15.33;9.20;;;12.80;99.90;;;;;;5051564;28;20580;-66
2022/04/16 00:30:47;;;;;;;14.93;9.27;;;12.70;99.90;;;;;;5051285;28;20260;-66
2022/04/16 00:33:14;;;;;;;15.83;9.37;;;12.70;99.90;;;;;;5051824;28;20201;-66
2022/04/16 00:35:43;;;;;;;15.13;9.40;;;12.70;99.90;;;;;;5051514;28;20722;-66
2022/04/16 00:38:09;;;;;;;15.43;9.47;;;12.60;99.90;;;;;;5051143;28;20225;-67
2022/04/16 00:40:38;;;;;;;15.27;9.90;;;12.50;99.90;;;;;;5051508;28;20594;-66
2022/04/16 00:43:06;;;;;;;17.57;9.37;;;12.50;99.90;;;;;;5051246;28;20205;-66
2022/04/16 00:45:33;;;;;;;15.17;9.70;;;12.40;99.90;;;;;;5051076;28;20251;-67
2022/04/16 00:48:00;;;;;;;16.40;9.80;;;12.30;99.90;;;;;;5051394;28;20202;-67
2022/04/16 00:50:27;;;;;;;14.77;9.50;;;12.20;99.90;;;;;;5051355;28;20205;-66
2022/04/16 00:52:55;;;;;;;16.50;9.23;;;12.20;99.90;;;;;;5051146;28;20209;-66
2022/04/16 00:55:22;;;;;;;16.30;9.83;;;12.20;99.90;;;;;;5051176;28;20569;-66
2022/04/16 00:57:51;;;;;;;16.20;9.07;;;12.20;99.90;;;;;;5051115;28;20548;-66
2022/04/16 01:00:18;;;;;;;15.03;9.30;;;12.30;99.90;;;;;;5050888;28;20205;-67
2022/04/16 01:02:46;;;;;;;16.03;8.93;;;12.30;99.90;;;;;;5051107;28;20209;-66
2022/04/16 01:05:13;;;;;;;16.90;9.10;;;12.30;99.90;;;;;;5051267;28;20606;-67
2022/04/16 01:07:53;;;;;;;16.53;10.00;;;12.30;99.90;;;;;;5051401;28;20672;-66
2022/04/16 01:10:21;;;;;;;16.50;9.10;;;12.20;99.90;;;;;;5051163;28;20194;-66
2022/04/16 01:12:47;;;;;;;13.73;8.93;;;12.20;99.90;;;;;;5051304;28;20672;-66
2022/04/16 01:15:17;;;;;;;14.50;9.13;;;12.20;99.90;;;;;;5051019;28;20209;-66
2022/04/16 01:17:44;;;;;;;15.07;9.47;;;12.20;99.90;;;;;;5051231;28;20259;-67
2022/04/16 01:20:11;;;;;;;13.03;8.97;;;12.10;99.90;;;;;;5051423;28;20239;-65
2022/04/16 01:22:40;;;;;;;14.50;9.83;;;12.10;99.90;;;;;;5054496;28;20210;-66
2022/04/16 01:25:08;;;;;;;15.60;9.17;;;12.10;99.90;;;;;;5054783;28;20574;-66
2022/04/16 01:27:36;;;;;;;19.27;9.43;;;12.20;99.90;;;;;;5054715;28;20209;-66
2022/04/16 01:30:03;;;;;;;17.60;9.83;;;12.10;99.90;;;;;;5054572;28;20777;-66
2022/04/16 01:32:32;;;;;;;16.97;9.77;;;12.10;99.90;;;;;;5054552;28;20259;-66
2022/04/16 01:34:59;;;;;;;18.50;10.00;;;12.10;99.90;;;;;;5054185;28;20238;-68
2022/04/16 01:37:31;;;;;;;15.30;9.60;;;12.10;99.90;;;;;;5054061;28;20205;-65
2022/04/16 01:39:59;;;;;;;21.70;10.63;;;12.00;99.90;;;;;;5054440;28;20216;-66
2022/04/16 01:42:26;;;;;;;22.10;11.17;;;11.90;99.90;;;;;;5054079;28;20206;-66
2022/04/16 01:44:53;;;;;;;16.37;10.00;;;11.90;99.90;;;;;;5054417;28;20609;-66
2022/04/16 01:47:20;;;;;;;17.37;10.17;;;11.80;99.90;;;;;;5054291;28;20205;-66
2022/04/16 01:49:46;;;;;;;18.17;10.60;;;11.80;99.90;;;;;;5054353;28;20208;-66
2022/04/16 01:52:13;;;;;;;17.70;10.47;;;11.80;99.90;;;;;;5054097;28;20687;-67
2022/04/16 01:54:41;;;;;;;18.33;10.80;;;11.80;99.90;;;;;;5054319;28;20687;-65
2022/04/16 01:57:09;;;;;;;15.13;10.43;;;11.80;99.90;;;;;;5054066;28;20272;-66
2022/04/16 01:59:36;;;;;;;17.43;11.13;;;11.80;99.90;;;;;;5053937;28;20225;-66
2022/04/16 02:02:03;;;;;;;18.77;11.03;;;11.70;99.90;;;;;;5054153;28;20544;-66
2022/04/16 02:04:31;;;;;;;16.90;10.37;;;11.70;99.90;;;;;;5054013;28;20228;-66
2022/04/16 02:06:58;;;;;;;19.13;10.60;;;11.70;99.90;;;;;;5054026;28;20259;-66
2022/04/16 02:09:25;;;;;;;17.10;10.57;;;11.70;99.90;;;;;;5053982;28;20208;-65
2022/04/16 02:11:52;;;;;;;19.03;11.17;;;11.70;99.90;;;;;;5053822;28;20212;-66
2022/04/16 02:14:21;;;;;;;16.70;10.47;;;11.70;99.90;;;;;;5053734;28;20201;-66
2022/04/16 02:16:48;;;;;;;25.40;11.50;;;11.70;99.90;;;;;;5053774;28;20681;-66
2022/04/16 02:19:15;;;;;;;17.83;10.97;;;11.70;99.90;;;;;;5053557;28;20559;-66
2022/04/16 02:21:42;;;;;;;19.10;11.57;;;11.60;99.90;;;;;;5053764;28;20279;-66
2022/04/16 02:24:10;;;;;;;17.73;11.77;;;11.50;99.90;;;;;;5053635;28;20225;-66
2022/04/16 02:26:37;;;;;;;21.80;12.30;;;11.50;99.90;;;;;;5053385;28;20211;-66
2022/04/16 02:29:05;;;;;;;20.97;12.47;;;11.50;99.90;;;;;;5053404;28;20199;-66
2022/04/16 02:31:33;;;;;;;20.60;12.20;;;11.50;99.90;;;;;;5052351;28;20237;-66
2022/04/16 02:34:00;;;;;;;21.40;12.50;;;11.50;99.90;;;;;;5052910;28;20443;-66
2022/04/16 02:36:27;;;;;;;19.67;12.70;;;11.40;99.90;;;;;;5053533;28;20734;-66
2022/04/16 02:38:55;;;;;;;21.77;12.87;;;11.40;99.90;;;;;;5053412;28;20235;-67
2022/04/16 02:41:22;;;;;;;19.17;12.30;;;11.40;99.90;;;;;;5053020;28;20264;-66
2022/04/16 02:43:49;;;;;;;18.80;13.07;;;11.40;99.90;;;;;;5053580;28;20205;-65
2022/04/16 02:49:01;;;;;;;21.83;12.53;;;11.50;99.90;;;;;;5053029;28;20203;-65
2022/04/16 02:51:28;;;;;;;21.70;12.73;;;11.50;99.90;;;;;;5053404;28;20201;-66
2022/04/16 02:53:55;;;;;;;20.13;13.70;;;11.50;99.90;;;;;;5053155;28;20228;-66
2022/04/16 02:56:22;;;;;;;21.50;13.00;;;11.50;99.90;;;;;;5053106;28;20227;-66
2022/04/16 02:58:48;;;;;;;22.73;12.87;;;11.40;99.90;;;;;;5052849;28;20584;-66
2022/04/16 03:01:15;;;;;;;19.00;12.87;;;11.40;99.90;;;;;;5052620;28;20224;-66
2022/04/16 03:03:42;;;;;;;22.87;12.37;;;11.40;99.90;;;;;;5052667;28;20217;-66
2022/04/16 03:06:11;;;;;;;20.43;12.47;;;11.40;99.90;;;;;;5053174;28;20201;-66
2022/04/16 03:08:38;;;;;;;19.47;13.17;;;11.30;99.90;;;;;;5052885;28;20213;-66
2022/04/16 03:11:05;;;;;;;18.93;12.13;;;11.30;99.90;;;;;;5052665;28;20686;-66
2022/04/16 03:13:34;;;;;;;18.93;12.30;;;11.30;99.90;;;;;;5053228;28;20839;-67
2022/04/16 03:18:45;;;;;;;21.03;13.70;;;11.30;99.90;;;;;;5052307;28;20263;-67
2022/04/16 03:21:13;;;;;;;19.57;12.80;;;11.20;99.90;;;;;;5052400;28;20254;-65
2022/04/16 03:23:40;;;;;;;22.13;14.23;;;11.20;99.90;;;;;;5052323;28;20201;-65
2022/04/16 03:26:07;;;;;;;21.50;13.90;;;11.20;99.90;;;;;;5052391;28;20659;-66
2022/04/16 03:28:34;;;;;;;21.10;13.50;;;11.10;99.90;;;;;;5052509;28;20205;-65
2022/04/16 03:31:01;;;;;;;21.53;13.67;;;11.10;99.90;;;;;;5052124;28;20240;-65
2022/04/16 03:33:27;;;;;;;22.90;14.77;;;11.10;99.90;;;;;;5052420;28;20207;-66
2022/04/16 03:35:54;;;;;;;24.13;14.03;;;11.10;99.90;;;;;;5052168;28;20585;-64
2022/04/16 03:38:22;;;;;;;22.87;14.83;;;11.00;99.90;;;;;;5052322;28;20570;-65
2022/04/16 03:40:49;;;;;;;20.30;13.10;;;11.00;99.90;;;;;;5052181;28;20247;-65
2022/04/16 03:43:20;;;;;;;20.80;13.13;;;11.10;99.90;;;;;;5051935;28;20242;-66
2022/04/16 03:45:46;;;;;;;21.57;14.30;;;11.10;99.90;;;;;;5052036;28;20190;-66
2022/04/16 03:48:15;;;;;;;22.97;13.90;;;11.00;99.90;;;;;;5052345;28;20207;-67
2022/04/16 03:50:42;;;;;;;23.80;14.43;;;11.00;99.90;;;;;;5052096;28;20225;-67
2022/04/16 03:53:08;;;;;;;21.03;13.67;;;11.00;99.90;;;;;;5051685;28;20639;-66
2022/04/16 04:01:07;;;;;;;23.57;15.07;;;11.00;99.90;;;;;;5051730;28;20277;-66
2022/04/16 04:03:34;;;;;;;25.23;15.10;;;11.00;99.90;;;;;;5051760;28;20299;-66
2022/04/16 04:06:01;;;;;;;22.10;14.73;;;10.90;99.90;;;;;;5051891;28;20739;-66
2022/04/16 04:08:28;;;;;;;19.13;14.03;;;10.80;99.90;;;;;;5051794;28;20205;-66
2022/04/16 04:10:56;;;;;;;23.70;15.07;;;10.80;99.90;;;;;;5051546;28;20205;-66
2022/04/16 04:13:24;;;;;;;25.10;15.97;;;10.80;99.90;;;;;;5051960;28;20565;-67
2022/04/16 04:15:51;;;;;;;24.40;15.03;;;10.70;99.90;;;;;;5051716;28;20209;-66
2022/04/16 04:18:17;;;;;;;24.13;15.70;;;10.70;99.90;;;;;;5051878;28;20212;-66
2022/04/16 04:20:44;;;;;;;20.97;14.63;;;10.60;99.90;;;;;;5051763;28;20228;-66
2022/04/16 04:23:11;;;;;;;25.03;15.83;;;10.60;99.90;;;;;;5051568;28;20241;-66
2022/04/16 04:25:38;;;;;;;21.03;15.30;;;10.70;99.90;;;;;;5051897;28;20292;-67
2022/04/16 04:28:06;;;;;;;23.73;15.23;;;10.70;99.90;;;;;;5051617;28;20205;-65
2022/04/16 04:30:33;;;;;;;26.30;16.13;;;10.70;99.90;;;;;;5051324;28;20719;-66
2022/04/16 04:33:00;;;;;;;26.10;15.70;;;10.70;99.90;;;;;;5051484;28;20355;-67
2022/04/16 04:35:27;;;;;;;23.43;16.03;;;10.70;99.90;;;;;;5051655;28;20226;-64
2022/04/16 04:37:54;;;;;;;23.40;15.00;;;10.70;99.90;;;;;;5051560;28;20202;-66
2022/04/16 04:40:21;;;;;;;24.23;15.17;;;10.70;99.90;;;;;;5051379;28;20217;-66
2022/04/16 04:42:48;;;;;;;24.27;15.63;;;10.80;99.90;;;;;;5051146;28;20209;-67
2022/04/16 04:45:17;;;;;;;24.63;15.70;;;10.90;99.90;;;;;;5051605;28;20225;-67
2022/04/16 04:47:44;;;;;;;26.40;16.67;;;10.90;99.90;;;;;;5051093;28;20205;-67
2022/04/16 04:50:11;;;;;;;24.20;16.37;;;10.80;99.90;;;;;;5051242;28;20215;-68
2022/04/16 04:52:40;;;;;;;25.77;16.20;;;10.70;99.90;;;;;;5051498;28;20201;-67
2022/04/16 04:55:09;;;;;;;25.77;17.00;;;10.70;99.90;;;;;;5051615;28;20209;-67
2022/04/16 04:57:36;;;;;;;23.63;15.80;;;10.60;99.90;;;;;;5055063;28;20213;-66
2022/04/16 05:00:05;;;;;;;25.87;16.20;;;10.70;99.90;;;;;;5055064;28;20235;-67
2022/04/16 05:02:40;;;;;;;24.63;15.53;;;10.70;99.90;;;;;;5054644;28;20221;-66
2022/04/16 05:05:08;;;;;;;26.77;16.23;;;10.80;99.90;;;;;;5055423;28;20193;-66
2022/04/16 05:07:35;;;;;;;23.20;15.43;;;10.80;99.90;;;;;;5055257;28;20569;-67
2022/04/16 05:10:02;;;;;;;24.50;15.50;;;10.90;99.90;;;;;;5055128;28;20556;-66
2022/04/16 05:12:28;;;;;;;23.10;15.37;;;11.00;99.90;;;;;;5055160;28;20706;-66
2022/04/16 05:14:55;;;;;;;22.70;14.83;;;11.00;99.90;;;;;;5055005;28;20564;-66
2022/04/16 05:17:22;;;;;;;25.03;15.50;;;11.00;99.90;;;;;;5054793;28;20224;-66
2022/04/16 05:19:50;;;;;;;21.23;15.10;;;11.10;99.90;;;;;;5054369;28;20229;-65
2022/04/16 05:22:17;;;;;;;23.73;15.77;;;11.10;99.90;;;;;;5054864;28;20212;-66
2022/04/16 05:24:44;;;;;;;24.80;15.27;;;11.20;99.90;;;;;;5054455;28;20212;-67
2022/04/16 05:27:11;;;;;;;22.40;15.40;;;11.20;99.90;;;;;;5054784;28;20209;-67
2022/04/16 05:29:56;;;;;;;24.33;15.43;;;11.20;99.90;;;;;;5054533;28;20715;-66
2022/04/16 05:32:24;;;;;;;23.37;15.53;;;11.30;99.90;;;;;;5054618;28;20216;-66
2022/04/16 05:34:55;;;;;;;25.37;15.30;;;11.30;99.90;;;;;;5054557;28;20283;-65
2022/04/16 05:37:22;;;;;;;24.47;15.27;;;11.40;99.90;;;;;;5054802;28;20366;-66
2022/04/16 05:39:49;;;;;;;21.07;14.80;;;11.30;99.90;;;;;;5054057;28;20242;-67
2022/04/16 05:42:16;;;;;;;23.53;14.50;;;11.40;99.90;;;;;;5054505;28;20206;-65
2022/04/16 05:44:43;;;;;;;23.87;15.97;;;11.40;99.90;;;;;;5054494;28;20671;-67
2022/04/16 05:47:10;;;;;;;25.77;16.27;;;11.50;99.90;;;;;;5054561;28;20663;-67
2022/04/16 05:49:36;;;;;;;21.73;14.50;;;11.60;99.90;;;;;;5054286;28;20203;-66
2022/04/16 05:52:06;;;;;;;26.30;16.40;;;11.70;99.90;;;;;;5054384;28;20212;-65
2022/04/16 05:54:32;;;;;;;21.70;14.70;;;11.70;99.90;;;;;;5054464;28;20224;-67
2022/04/16 05:57:00;;;;;;;24.70;15.97;;;11.70;99.90;;;;;;5054345;28;20202;-67
2022/04/16 05:59:26;;;;;;;24.77;15.90;;;11.80;99.90;;;;;;5054001;28;20288;-66
2022/04/16 06:01:53;;;;;;;23.37;14.80;;;11.80;99.90;;;;;;5053434;28;20216;-66
2022/04/16 06:04:20;;;;;;;21.90;14.70;;;11.90;99.90;;;;;;5053844;28;20207;-69
2022/04/16 06:06:47;;;;;;;23.77;15.90;;;12.00;99.90;;;;;;5053580;28;20211;-67
2022/04/16 06:09:15;;;;;;;26.83;15.63;;;12.10;99.90;;;;;;5053992;28;20209;-67
2022/04/16 06:11:42;;;;;;;25.67;15.67;;;12.10;99.90;;;;;;5053813;28;20540;-68
2022/04/16 06:14:10;;;;;;;27.27;16.60;;;12.10;99.90;;;;;;5053690;28;20668;-66
2022/04/16 06:16:36;;;;;;;25.23;16.47;;;12.00;99.90;;;;;;5053757;28;20201;-67
2022/04/16 06:19:03;;;;;;;24.37;16.00;;;12.00;99.90;;;;;;5053510;28;20205;-66
2022/04/16 06:21:30;;;;;;;22.37;15.90;;;12.00;99.90;;;;;;5053267;28;20229;-66
2022/04/16 06:23:57;;;;;;;27.87;17.00;;;12.00;99.90;;;;;;5053369;28;20205;-67
2022/04/16 06:26:27;;;;;;;26.67;15.90;;;11.90;99.90;;;;;;5053288;28;20208;-67
2022/04/16 06:28:54;;;;;;;25.23;15.90;;;12.00;99.90;;;;;;5053724;28;20251;-68
2022/04/16 06:31:20;;;;;;;26.03;15.73;;;11.90;99.90;;;;;;5053141;28;20237;-66
2022/04/16 06:33:47;;;;;;;27.43;15.80;;;12.00;99.90;;;;;;5053265;28;20217;-67
2022/04/16 06:36:14;;;;;;;25.33;16.07;;;12.00;99.90;;;;;;5053163;28;20231;-66
2022/04/16 06:38:42;;;;;;;26.80;17.10;;;12.00;99.90;;;;;;5053530;28;20671;-71
2022/04/16 06:41:08;;;;;;;25.90;16.53;;;11.90;99.90;;;;;;5053410;28;20228;-67
2022/04/16 06:43:37;;;;;;;25.43;15.93;;;11.90;99.90;;;;;;5053212;28;20205;-67
2022/04/16 06:46:04;;;;;;;24.93;15.90;;;11.80;99.90;;;;;;5053207;28;20208;-67
2022/04/16 06:48:31;;;;;;;29.17;15.60;;;11.70;99.90;;;;;;5053104;28;20212;-72
2022/04/16 06:50:58;;;;;;;25.50;15.03;;;11.70;99.90;;;;;;5053132;28;20201;-67
2022/04/16 06:53:27;;;;;;;22.87;15.00;;;11.70;99.90;;;;;;5052719;28;20201;-66
2022/04/16 06:55:54;;;;;;;26.17;15.43;;;11.70;99.90;;;;;;5053056;28;20283;-66
2022/04/16 06:58:20;;;;;;;25.07;15.07;;;11.70;99.90;;;;;;5052396;28;20220;-67
2022/04/16 07:00:48;;;;;;;26.30;15.30;;;11.80;99.90;;;;;;5052795;28;20706;-67
2022/04/16 07:03:15;;;;;;;25.00;15.77;;;11.80;99.90;;;;;;5052486;28;20208;-67
2022/04/16 07:05:42;;;;;;;24.03;15.20;;;11.80;99.90;;;;;;5052331;28;20205;-68
2022/04/16 07:08:09;;;;;;;23.20;15.37;;;11.80;99.90;;;;;;5052310;28;20215;-67
2022/04/16 07:10:36;;;;;;;22.30;14.97;;;11.90;99.90;;;;;;5052464;28;20563;-67
2022/04/16 07:13:03;;;;;;;21.53;14.07;;;11.90;99.90;;;;;;5052434;28;20673;-67
2022/04/16 07:15:29;;;;;;;19.63;14.17;;;12.00;99.90;;;;;;5052396;28;20206;-67
2022/04/16 07:17:57;;;;;;;21.50;14.30;;;12.00;99.90;;;;;;5051830;28;20232;-70
2022/04/16 07:20:24;;;;;;;24.10;14.67;;;12.00;99.90;;;;;;5052444;28;20221;-68
2022/04/16 07:22:51;;;;;;;21.23;13.50;;;12.00;99.90;;;;;;5052382;28;20212;-68
2022/04/16 07:25:18;;;;;;;22.77;13.80;;;12.10;99.90;;;;;;5052227;28;20208;-68
2022/04/16 07:27:45;;;;;;;21.80;14.37;;;12.20;99.90;;;;;;5052034;28;20206;-67
2022/04/16 07:30:12;;;;;;;21.47;13.07;;;12.20;99.90;;;;;;5051994;28;20259;-67
2022/04/16 07:32:39;;;;;;;19.50;13.50;;;12.20;99.90;;;;;;5052119;28;20562;-67
2022/04/16 07:35:08;;;;;;;18.03;13.00;;;12.30;99.90;;;;;;5052046;28;20264;-67
2022/04/16 07:37:34;;;;;;;19.67;12.73;;;12.40;99.90;;;;;;5052212;28;20206;-67
2022/04/16 07:40:01;;;;;;;18.77;12.77;;;12.40;99.90;;;;;;5051988;28;20296;-67
2022/04/16 07:42:30;;;;;;;18.57;11.87;;;12.50;99.90;;;;;;5052057;28;20201;-67
2022/04/16 07:44:56;;;;;;;17.67;11.87;;;12.60;99.90;;;;;;5052320;28;20205;-66
2022/04/16 07:47:23;;;;;;;20.30;11.97;;;12.50;99.90;;;;;;5051730;28;20205;-66
2022/04/16 07:49:50;;;;;;;17.40;11.17;;;12.50;99.90;;;;;;5052204;28;20689;-67
2022/04/16 07:52:18;;;;;;;18.13;12.00;;;12.60;99.90;;;;;;5051719;28;20455;-67
2022/04/16 07:54:45;;;;;;;18.83;11.70;;;12.70;99.90;;;;;;5051773;28;20205;-68
2022/04/16 07:57:13;;;;;;;17.97;11.43;;;12.70;99.90;;;;;;5051874;28;20656;-67
2022/04/16 07:59:40;;;;;;;19.33;12.23;;;12.70;99.90;;;;;;5051903;28;20212;-67
2022/04/16 08:02:07;;;;;;;18.27;12.33;;;12.80;99.90;;;;;;5051889;28;20579;-68
2022/04/16 08:04:34;;;;;;;18.03;12.07;;;12.80;99.90;;;;;;5051427;28;20986;-67
2022/04/16 08:07:01;;;;;;;16.87;11.57;;;12.80;99.90;;;;;;5052167;28;20206;-68
2022/04/16 08:09:29;;;;;;;17.13;11.10;;;12.90;99.90;;;;;;5051887;28;20651;-67
2022/04/16 08:11:58;;;;;;;16.13;10.50;;;13.00;99.90;;;;;;5051386;28;20205;-68
2022/04/16 08:14:25;;;;;;;12.57;9.33;;;13.10;99.90;;;;;;5051574;28;20564;-67
2022/04/16 08:16:51;;;;;;;13.57;9.33;;;13.20;99.90;;;;;;5051511;28;20213;-67
2022/04/16 08:19:18;;;;;;;15.40;9.23;;;13.30;99.90;;;;;;5051442;28;20216;-67
2022/04/16 08:21:45;;;;;;;11.93;8.73;;;13.40;99.90;;;;;;5051658;28;20229;-67
2022/04/16 08:24:38;;;;;;;13.63;9.30;;;13.40;99.90;;;;;;5051538;28;20689;-67
2022/04/16 08:27:03;;;;;;;13.90;9.17;;;13.40;99.90;;;;;;5051394;28;20205;-69
2022/04/16 08:29:30;;;;;;;13.27;9.27;;;13.50;99.90;;;;;;5050985;28;20208;-68
2022/04/16 08:31:57;;;;;;;13.77;9.00;;;13.60;99.90;;;;;;5054475;28;20196;-68
2022/04/16 08:34:24;;;;;;;14.37;9.40;;;13.50;99.90;;;;;;5055335;28;20228;-68
2022/04/16 08:36:51;;;;;;;14.43;8.23;;;13.50;99.90;;;;;;5055730;28;20668;-67
2022/04/16 08:39:18;;;;;;;11.33;8.03;;;13.60;99.90;;;;;;5055383;28;20686;-67
2022/04/16 08:41:44;;;;;;;11.90;8.03;;;13.60;99.90;;;;;;5055113;28;20225;-68
2022/04/16 08:44:14;;;;;;;12.60;8.60;;;13.60;99.90;;;;;;5055364;28;20642;-68
2022/04/16 08:46:41;;;;;;;11.13;7.73;;;13.80;99.90;;;;;;5055430;28;20207;-67
2022/04/16 08:49:08;;;;;;;11.93;7.73;;;13.90;99.90;;;;;;5055374;28;20211;-69
2022/04/16 08:51:35;;;;;;;11.90;7.93;;;13.90;99.90;;;;;;5055508;28;20201;-67
2022/04/16 08:54:04;;;;;;;11.00;7.63;;;14.00;99.90;;;;;;5055264;28;20212;-67
2022/04/16 08:56:33;;;;;;;11.80;8.20;;;14.00;99.90;;;;;;5054718;28;20205;-67
2022/04/16 08:58:59;;;;;;;11.67;8.07;;;13.90;99.90;;;;;;5054995;28;20209;-69
2022/04/16 09:01:28;;;;;;;14.13;8.60;;;14.00;99.90;;;;;;5054701;28;20225;-67
2022/04/16 09:03:58;;;;;;;12.93;8.00;;;13.90;99.90;;;;;;5055278;28;20205;-69
2022/04/16 09:06:27;;;;;;;12.60;8.57;;;13.90;99.90;;;;;;5055428;28;20212;-67
2022/04/16 09:08:55;;;;;;;13.83;8.40;;;13.90;99.90;;;;;;5055508;28;20209;-67
2022/04/16 09:11:23;;;;;;;14.37;7.83;;;13.90;99.90;;;;;;5054681;28;20631;-67
2022/04/16 09:13:54;;;;;;;14.20;8.60;;;13.90;99.90;;;;;;5055192;28;20270;-67
2022/04/16 09:16:22;;;;;;;13.47;8.77;;;13.90;99.90;;;;;;5054543;28;20201;-68
2022/04/16 09:18:51;;;;;;;11.87;8.50;;;14.00;99.90;;;;;;5054766;28;20235;-67
2022/04/16 09:21:19;;;;;;;14.00;8.70;;;14.10;99.90;;;;;;5054604;28;20263;-70
2022/04/16 09:23:52;;;;;;;13.87;8.60;;;14.00;99.90;;;;;;5054764;28;20205;-68
2022/04/16 09:26:26;;;;;;;13.70;9.00;;;13.90;99.90;;;;;;5054326;28;20285;-67
2022/04/16 09:28:53;;;;;;;13.90;7.63;;;13.60;99.90;;;;;;5054732;28;20262;-68
2022/04/16 09:31:26;;;;;;;12.97;7.60;;;13.10;99.90;;;;;;5054177;28;20229;-67
2022/04/16 09:33:54;;;;;;;9.87;6.47;;;12.50;99.90;;;;;;5054120;28;20186;-66
2022/04/16 09:36:24;;;;;;;11.17;6.87;;;12.20;99.90;;;;;;5054495;28;20209;-67
2022/04/16 09:38:51;;;;;;;12.37;6.37;;;12.00;99.90;;;;;;5054545;28;20194;-68
2022/04/16 09:41:18;;;;;;;12.83;6.03;;;11.80;99.90;;;;;;5053298;28;20315;-67
2022/04/16 09:43:45;;;;;;;10.57;6.10;;;11.70;99.90;;;;;;5054371;28;20205;-67
2022/04/16 09:46:13;;;;;;;13.57;6.93;;;11.40;99.90;;;;;;5054169;28;20778;-68
2022/04/16 09:48:40;;;;;;;13.20;6.97;;;11.10;99.90;;;;;;5054321;28;20201;-71
2022/04/16 09:51:09;;;;;;;8.97;5.70;;;10.90;99.90;;;;;;5054018;28;20206;-67
2022/04/16 09:53:38;;;;;;;11.40;5.33;;;10.70;99.90;;;;;;5054069;28;20207;-66
2022/04/16 09:56:11;;;;;;;9.37;5.20;;;10.50;99.90;;;;;;5054101;28;20538;-67
2022/04/16 09:58:40;;;;;;;8.70;4.60;;;10.40;99.90;;;;;;5053845;28;20197;-67
2022/04/16 10:01:10;;;;;;;7.67;4.73;;;10.30;99.90;;;;;;5054051;28;20264;-68
2022/04/16 10:03:37;;;;;;;7.13;4.20;;;10.20;99.90;;;;;;5054497;28;20327;-69
2022/04/16 10:06:04;;;;;;;7.57;4.10;;;9.90;99.90;;;;;;5053917;28;20228;-67
2022/04/16 10:08:34;;;;;;;6.90;3.80;;;9.80;99.90;;;;;;5054008;28;20210;-68
2022/04/16 10:11:03;;;;;;;4.63;2.80;;;9.70;99.90;;;;;;5053449;28;20205;-67
2022/04/16 10:13:38;;;;;;;3.70;2.30;;;9.70;99.90;;;;;;5053868;28;20560;-67
2022/04/16 10:16:13;;;;;;;3.03;2.13;;;9.50;99.90;;;;;;5053326;28;20220;-67
2022/04/16 10:18:40;;;;;;;2.37;1.67;;;9.30;99.90;;;;;;5053902;28;20548;-68
2022/04/16 10:21:15;;;;;;;3.77;1.80;;;9.30;99.90;;;;;;5053611;28;20936;-67
2022/04/16 10:23:44;;;;;;;2.63;1.80;;;9.10;99.90;;;;;;5053399;28;20251;-67
2022/04/16 10:26:12;;;;;;;2.20;1.57;;;8.90;99.90;;;;;;5053674;28;20205;-67
2022/04/16 10:28:41;;;;;;;2.77;1.87;;;8.90;99.90;;;;;;5053514;28;20208;-67
2022/04/16 10:31:21;;;;;;;3.00;2.13;;;8.70;99.90;;;;;;5052980;28;20237;-66
2022/04/16 10:33:58;;;;;;;3.23;2.10;;;8.60;99.90;;;;;;5053198;28;20236;-68
2022/04/16 10:36:26;;;;;;;5.00;2.03;;;8.60;99.90;;;;;;5053462;28;20209;-68
2022/04/16 10:38:54;;;;;;;4.53;1.73;;;8.60;99.90;;;;;;5053425;28;20201;-67
2022/04/16 10:41:22;;;;;;;2.87;2.20;;;8.60;99.90;;;;;;5052994;28;20298;-67
2022/04/16 10:43:54;;;;;;;4.37;2.30;;;8.60;99.90;;;;;;5053430;28;20217;-67
2022/04/16 10:46:21;;;;;;;2.97;2.20;;;8.60;99.90;;;;;;5053284;28;20284;-67
2022/04/16 10:48:50;;;;;;;2.50;1.80;;;8.60;99.90;;;;;;5053093;28;20211;-69
2022/04/16 10:51:22;;;;;;;4.03;1.97;;;8.60;99.90;;;;;;5052614;28;20319;-67
2022/04/16 10:53:49;;;;;;;3.00;1.80;;;8.40;99.90;;;;;;5052034;28;20198;-68
2022/04/16 10:56:20;;;;;;;2.10;1.80;;;8.30;99.90;;;;;;5052858;28;20671;-67
2022/04/16 10:58:49;;;;;;;3.73;1.60;;;8.20;99.90;;;;;;5052960;28;20200;-67
2022/04/16 11:01:26;;;;;;;3.40;1.63;;;8.10;99.90;;;;;;5052887;28;20229;-67
2022/04/16 11:03:54;;;;;;;3.43;1.77;;;8.10;99.90;;;;;;5052890;28;20558;-67
2022/04/16 11:06:21;;;;;;;2.33;1.77;;;8.00;99.90;;;;;;5052882;28;20258;-68
2022/04/16 11:08:48;;;;;;;3.63;2.50;;;7.90;99.90;;;;;;5052597;28;20221;-67
2022/04/16 11:11:17;;;;;;;3.50;2.10;;;7.90;99.90;;;;;;5053045;28;20205;-68
2022/04/16 11:13:45;;;;;;;2.90;1.80;;;7.80;99.90;;;;;;5052646;28;20206;-67
2022/04/16 11:16:12;;;;;;;2.27;1.90;;;7.70;99.90;;;;;;5052251;28;20339;-66
2022/04/16 11:18:41;;;;;;;2.47;1.63;;;7.70;99.90;;;;;;5052337;28;20216;-67
2022/04/16 11:21:09;;;;;;;2.53;1.73;;;7.60;99.90;;;;;;5052775;28;20205;-67
2022/04/16 11:23:44;;;;;;;3.43;1.70;;;7.60;99.90;;;;;;5052485;28;20205;-68
2022/04/16 11:34:30;;;;;;;1.93;1.53;;;7.60;99.90;;;;;;5052022;28;20228;-67
2022/04/16 11:36:58;;;;;;;3.70;2.13;;;7.70;99.90;;;;;;5052123;28;20688;-69
2022/04/16 11:39:27;;;;;;;3.00;2.00;;;7.60;99.90;;;;;;5052257;28;20228;-68
2022/04/16 11:41:55;;;;;;;1.73;1.63;;;7.50;99.90;;;;;;5051953;28;20707;-67
2022/04/16 11:44:40;;;;;;;1.87;1.50;;;7.60;99.90;;;;;;5052158;28;20624;-66
2022/04/16 11:47:12;;;;;;;3.70;1.80;;;7.50;99.90;;;;;;5052009;28;20187;-67
2022/04/16 11:49:41;;;;;;;1.70;1.60;;;7.50;99.90;;;;;;5052216;28;20215;-67
2022/04/16 11:52:09;;;;;;;1.60;1.50;;;7.50;99.90;;;;;;5051654;28;20201;-66
2022/04/16 11:54:36;;;;;;;1.50;1.40;;;7.50;99.90;;;;;;5051606;28;20217;-65
2022/04/16 11:57:04;;;;;;;1.87;1.70;;;7.40;99.90;;;;;;5052012;28;20213;-65
2022/04/16 11:59:31;;;;;;;2.00;1.50;;;7.40;99.90;;;;;;5052103;28;20553;-67
2022/04/16 12:02:04;;;;;;;1.90;1.70;;;7.50;99.90;;;;;;5052019;28;20229;-66
2022/04/16 12:04:39;;;;;;;2.33;1.73;;;7.50;99.90;;;;;;5051812;28;20595;-66
2022/04/16 12:07:18;;;;;;;2.20;1.60;;;7.60;99.90;;;;;;5051840;28;20745;-67
2022/04/16 12:09:46;;;;;;;2.57;1.70;;;7.70;99.90;;;;;;5051792;28;20201;-67
2022/04/16 12:12:21;;;;;;;2.63;1.73;;;7.70;99.90;;;;;;5051563;28;20656;-66
2022/04/16 12:14:49;;;;;;;2.37;1.70;;;7.70;99.90;;;;;;5051634;28;20196;-66
2022/04/16 12:17:25;;;;;;;2.97;1.63;;;7.80;99.90;;;;;;5051674;28;20677;-66
2022/04/16 12:20:03;;;;;;;1.83;1.70;;;7.80;99.90;;;;;;5051648;28;20208;-67
2022/04/16 12:22:30;;;;;;;3.33;1.50;;;7.80;99.90;;;;;;5051401;28;20255;-66
2022/04/16 12:25:07;;;;;;;1.70;1.60;;;7.90;99.90;;;;;;5051496;28;20216;-67
2022/04/16 12:27:34;;;;;;;1.57;1.47;;;7.90;99.90;;;;;;5051831;28;20201;-66
2022/04/16 12:30:03;;;;;;;3.97;1.97;;;7.90;99.90;;;;;;5050929;28;20240;-67
2022/04/16 12:32:31;;;;;;;1.70;1.60;;;8.00;99.90;;;;;;5051694;28;20651;-67
2022/04/16 12:34:57;;;;;;;1.40;1.30;;;8.00;99.90;;;;;;5051418;28;20696;-66
2022/04/16 12:37:24;;;;;;;1.80;1.50;;;8.00;99.90;;;;;;5051510;28;20207;-65
2022/04/16 12:39:51;;;;;;;2.13;1.60;;;8.00;99.90;;;;;;5051563;28;20205;-66
2022/04/16 12:42:18;;;;;;;1.70;1.50;;;8.00;99.90;;;;;;5051444;28;20259;-65
2022/04/16 12:44:44;;;;;;;1.40;1.30;;;8.00;99.90;;;;;;5050937;28;20210;-66
2022/04/16 12:47:11;;;;;;;2.80;1.70;;;7.90;99.90;;;;;;5051626;28;20213;-67
2022/04/16 12:49:39;;;;;;;2.40;1.70;;;7.90;99.90;;;;;;5051582;28;20212;-66
2022/04/16 12:52:07;;;;;;;1.50;1.40;;;7.90;99.90;;;;;;5051480;28;20610;-67
2022/04/16 12:54:35;;;;;;;1.40;1.30;;;7.90;99.90;;;;;;5051654;28;20734;-67
2022/04/16 12:57:02;;;;;;;2.33;1.20;;;7.90;99.90;;;;;;5051417;28;20205;-67
2022/04/16 12:59:29;;;;;;;1.53;1.30;;;7.80;99.90;;;;;;5051245;28;20205;-68